sensor_id;sensor_type;location;lat;lon;timestamp;P1;durP1;ratioP1;P2;durP2;ratioP2
5167;SDS011;2603;48.918;8.980;2022-10-31T00:02:16;14.10;;;5.50;;
5167;SDS011;2603;48.918;8.980;2022-10-31T00:04:42;12.80;;;5.37;;
5167;SDS011;2603;48.918;8.980;2022-10-31T00:07:18;11.10;;;4.47;;
5167;SDS011;2603;48.918;8.980;2022-10-31T00:09:44;14.33;;;4.20;;
5167;SDS011;2603;48.918;8.980;2022-10-31T00:12:11;6.70;;;4.17;;
5167;SDS011;2603;48.918;8.980;2022-10-31T00:14:38;9.30;;;4.90;;
5167;SDS011;2603;48.918;8.980;2022-10-31T00:17:04;11.90;;;3.70;;
5167;SDS011;2603;48.918;8.980;2022-10-31T00:19:31;15.87;;;4.80;;
5167;SDS011;2603;48.918;8.980;2022-10-31T00:21:57;7.90;;;3.97;;
5167;SDS011;2603;48.918;8.980;2022-10-31T00:24:25;8.67;;;3.80;;
5167;SDS011;2603;48.918;8.980;2022-10-31T00:26:52;7.87;;;3.73;;
5167;SDS011;2603;48.918;8.980;2022-10-31T00:29:20;9.00;;;4.40;;
5167;SDS011;2603;48.918;8.980;2022-10-31T00:31:47;8.20;;;4.93;;
5167;SDS011;2603;48.918;8.980;2022-10-31T00:34:13;9.07;;;4.50;;
5167;SDS011;2603;48.918;8.980;2022-10-31T00:36:40;20.97;;;4.40;;
5167;SDS011;2603;48.918;8.980;2022-10-31T00:39:11;10.40;;;4.87;;
5167;SDS011;2603;48.918;8.980;2022-10-31T00:41:39;8.93;;;4.03;;
5167;SDS011;2603;48.918;8.980;2022-10-31T00:44:11;10.57;;;4.60;;
5167;SDS011;2603;48.918;8.980;2022-10-31T00:46:37;10.40;;;3.70;;
5167;SDS011;2603;48.918;8.980;2022-10-31T00:49:04;12.43;;;4.30;;
5167;SDS011;2603;48.918;8.980;2022-10-31T00:51:30;11.37;;;4.60;;
5167;SDS011;2603;48.918;8.980;2022-10-31T00:53:57;10.80;;;4.23;;
5167;SDS011;2603;48.918;8.980;2022-10-31T00:56:24;14.53;;;4.20;;
5167;SDS011;2603;48.918;8.980;2022-10-31T00:58:52;21.30;;;4.37;;
5167;SDS011;2603;48.918;8.980;2022-10-31T01:01:19;12.93;;;5.10;;
5167;SDS011;2603;48.918;8.980;2022-10-31T01:03:46;9.80;;;4.33;;
5167;SDS011;2603;48.918;8.980;2022-10-31T01:06:12;17.70;;;4.70;;
5167;SDS011;2603;48.918;8.980;2022-10-31T01:08:39;14.00;;;4.83;;
5167;SDS011;2603;48.918;8.980;2022-10-31T01:11:08;12.73;;;4.50;;
5167;SDS011;2603;48.918;8.980;2022-10-31T01:13:38;11.50;;;4.20;;
5167;SDS011;2603;48.918;8.980;2022-10-31T01:16:08;7.50;;;3.67;;
5167;SDS011;2603;48.918;8.980;2022-10-31T01:18:36;11.47;;;3.73;;
5167;SDS011;2603;48.918;8.980;2022-10-31T01:21:03;19.90;;;4.70;;
5167;SDS011;2603;48.918;8.980;2022-10-31T01:23:31;13.13;;;4.50;;
5167;SDS011;2603;48.918;8.980;2022-10-31T01:26:02;10.30;;;3.80;;
5167;SDS011;2603;48.918;8.980;2022-10-31T01:28:31;6.30;;;3.50;;
5167;SDS011;2603;48.918;8.980;2022-10-31T01:31:02;12.97;;;3.33;;
5167;SDS011;2603;48.918;8.980;2022-10-31T01:33:31;11.60;;;4.03;;
5167;SDS011;2603;48.918;8.980;2022-10-31T01:35:58;12.00;;;3.90;;
5167;SDS011;2603;48.918;8.980;2022-10-31T01:38:25;7.07;;;3.83;;
5167;SDS011;2603;48.918;8.980;2022-10-31T01:40:52;8.27;;;3.97;;
5167;SDS011;2603;48.918;8.980;2022-10-31T01:43:19;12.03;;;4.10;;
5167;SDS011;2603;48.918;8.980;2022-10-31T01:45:46;6.53;;;3.80;;
5167;SDS011;2603;48.918;8.980;2022-10-31T01:48:18;7.43;;;4.23;;
5167;SDS011;2603;48.918;8.980;2022-10-31T01:50:48;7.10;;;4.30;;
5167;SDS011;2603;48.918;8.980;2022-10-31T01:53:17;10.73;;;4.73;;
5167;SDS011;2603;48.918;8.980;2022-10-31T01:55:44;11.93;;;4.30;;
5167;SDS011;2603;48.918;8.980;2022-10-31T01:58:14;8.57;;;3.67;;
5167;SDS011;2603;48.918;8.980;2022-10-31T02:00:46;8.47;;;3.60;;
5167;SDS011;2603;48.918;8.980;2022-10-31T02:03:15;5.63;;;3.60;;
5167;SDS011;2603;48.918;8.980;2022-10-31T02:05:42;7.03;;;3.60;;
5167;SDS011;2603;48.918;8.980;2022-10-31T02:08:12;8.70;;;3.80;;
5167;SDS011;2603;48.918;8.980;2022-10-31T02:10:40;11.40;;;3.77;;
5167;SDS011;2603;48.918;8.980;2022-10-31T02:13:08;11.80;;;3.70;;
5167;SDS011;2603;48.918;8.980;2022-10-31T02:15:43;8.83;;;3.90;;
5167;SDS011;2603;48.918;8.980;2022-10-31T02:18:11;16.03;;;4.90;;
5167;SDS011;2603;48.918;8.980;2022-10-31T02:20:40;10.10;;;3.80;;
5167;SDS011;2603;48.918;8.980;2022-10-31T02:23:20;5.27;;;3.50;;
5167;SDS011;2603;48.918;8.980;2022-10-31T02:26:09;8.63;;;4.27;;
5167;SDS011;2603;48.918;8.980;2022-10-31T02:28:56;7.20;;;4.60;;
5167;SDS011;2603;48.918;8.980;2022-10-31T02:31:35;11.90;;;4.10;;
5167;SDS011;2603;48.918;8.980;2022-10-31T02:34:08;7.83;;;4.07;;
5167;SDS011;2603;48.918;8.980;2022-10-31T02:36:41;14.80;;;4.77;;
5167;SDS011;2603;48.918;8.980;2022-10-31T02:39:11;10.50;;;4.00;;
5167;SDS011;2603;48.918;8.980;2022-10-31T02:41:44;12.73;;;4.27;;
5167;SDS011;2603;48.918;8.980;2022-10-31T02:44:15;7.83;;;3.87;;
5167;SDS011;2603;48.918;8.980;2022-10-31T02:46:47;5.70;;;4.00;;
5167;SDS011;2603;48.918;8.980;2022-10-31T02:49:18;9.23;;;3.90;;
5167;SDS011;2603;48.918;8.980;2022-10-31T02:51:48;8.40;;;3.90;;
5167;SDS011;2603;48.918;8.980;2022-10-31T02:54:19;9.47;;;3.10;;
5167;SDS011;2603;48.918;8.980;2022-10-31T02:56:51;15.47;;;3.80;;
5167;SDS011;2603;48.918;8.980;2022-10-31T02:59:21;9.23;;;3.73;;
5167;SDS011;2603;48.918;8.980;2022-10-31T03:01:53;9.00;;;4.43;;
5167;SDS011;2603;48.918;8.980;2022-10-31T03:04:33;8.83;;;2.97;;
5167;SDS011;2603;48.918;8.980;2022-10-31T03:07:15;6.80;;;3.27;;
5167;SDS011;2603;48.918;8.980;2022-10-31T03:09:51;6.53;;;2.73;;
5167;SDS011;2603;48.918;8.980;2022-10-31T03:12:25;10.60;;;3.67;;
5167;SDS011;2603;48.918;8.980;2022-10-31T03:14:56;8.70;;;3.50;;
5167;SDS011;2603;48.918;8.980;2022-10-31T03:17:34;11.93;;;4.00;;
5167;SDS011;2603;48.918;8.980;2022-10-31T03:20:03;7.23;;;2.80;;
5167;SDS011;2603;48.918;8.980;2022-10-31T03:22:31;9.37;;;3.83;;
5167;SDS011;2603;48.918;8.980;2022-10-31T03:24:59;8.23;;;3.20;;
5167;SDS011;2603;48.918;8.980;2022-10-31T03:27:27;6.93;;;4.33;;
5167;SDS011;2603;48.918;8.980;2022-10-31T03:29:58;13.37;;;3.80;;
5167;SDS011;2603;48.918;8.980;2022-10-31T03:32:31;5.27;;;3.20;;
5167;SDS011;2603;48.918;8.980;2022-10-31T03:35:02;7.80;;;3.50;;
5167;SDS011;2603;48.918;8.980;2022-10-31T03:37:32;7.33;;;3.40;;
5167;SDS011;2603;48.918;8.980;2022-10-31T03:40:01;6.93;;;3.57;;
5167;SDS011;2603;48.918;8.980;2022-10-31T03:42:33;15.43;;;3.87;;
5167;SDS011;2603;48.918;8.980;2022-10-31T03:45:02;13.20;;;3.80;;
5167;SDS011;2603;48.918;8.980;2022-10-31T03:47:33;8.30;;;2.90;;
5167;SDS011;2603;48.918;8.980;2022-10-31T03:50:00;4.07;;;2.40;;
5167;SDS011;2603;48.918;8.980;2022-10-31T03:52:28;10.10;;;3.37;;
5167;SDS011;2603;48.918;8.980;2022-10-31T03:55:02;11.23;;;3.40;;
5167;SDS011;2603;48.918;8.980;2022-10-31T03:57:32;9.50;;;3.60;;
5167;SDS011;2603;48.918;8.980;2022-10-31T04:00:03;8.30;;;3.47;;
5167;SDS011;2603;48.918;8.980;2022-10-31T04:02:45;6.10;;;3.50;;
5167;SDS011;2603;48.918;8.980;2022-10-31T04:05:13;16.87;;;3.80;;
5167;SDS011;2603;48.918;8.980;2022-10-31T04:07:43;7.53;;;2.63;;
5167;SDS011;2603;48.918;8.980;2022-10-31T04:10:12;8.30;;;2.70;;
5167;SDS011;2603;48.918;8.980;2022-10-31T04:12:42;6.73;;;2.80;;
5167;SDS011;2603;48.918;8.980;2022-10-31T04:15:21;10.43;;;3.33;;
5167;SDS011;2603;48.918;8.980;2022-10-31T04:17:50;8.90;;;3.50;;
5167;SDS011;2603;48.918;8.980;2022-10-31T04:20:28;5.30;;;3.20;;
5167;SDS011;2603;48.918;8.980;2022-10-31T04:22:55;10.10;;;3.50;;
5167;SDS011;2603;48.918;8.980;2022-10-31T04:25:22;11.83;;;4.57;;
5167;SDS011;2603;48.918;8.980;2022-10-31T04:27:51;18.50;;;4.80;;
5167;SDS011;2603;48.918;8.980;2022-10-31T04:30:17;7.97;;;4.07;;
5167;SDS011;2603;48.918;8.980;2022-10-31T04:32:44;14.53;;;4.40;;
5167;SDS011;2603;48.918;8.980;2022-10-31T04:35:12;9.13;;;4.47;;
5167;SDS011;2603;48.918;8.980;2022-10-31T04:37:39;10.93;;;5.77;;
5167;SDS011;2603;48.918;8.980;2022-10-31T04:40:06;62.47;;;29.03;;
5167;SDS011;2603;48.918;8.980;2022-10-31T04:42:57;80.53;;;38.83;;
5167;SDS011;2603;48.918;8.980;2022-10-31T04:45:23;63.33;;;33.40;;
5167;SDS011;2603;48.918;8.980;2022-10-31T04:47:52;67.93;;;31.77;;
5167;SDS011;2603;48.918;8.980;2022-10-31T04:50:20;57.83;;;29.03;;
5167;SDS011;2603;48.918;8.980;2022-10-31T04:52:46;54.97;;;27.83;;
5167;SDS011;2603;48.918;8.980;2022-10-31T04:55:16;44.63;;;24.67;;
5167;SDS011;2603;48.918;8.980;2022-10-31T04:57:55;42.20;;;20.93;;
5167;SDS011;2603;48.918;8.980;2022-10-31T05:00:24;32.07;;;12.57;;
5167;SDS011;2603;48.918;8.980;2022-10-31T05:02:51;28.83;;;15.47;;
5167;SDS011;2603;48.918;8.980;2022-10-31T05:05:21;13.40;;;6.60;;
5167;SDS011;2603;48.918;8.980;2022-10-31T05:07:49;10.97;;;5.10;;
5167;SDS011;2603;48.918;8.980;2022-10-31T05:10:19;19.80;;;4.67;;
5167;SDS011;2603;48.918;8.980;2022-10-31T05:12:49;8.63;;;5.07;;
5167;SDS011;2603;48.918;8.980;2022-10-31T05:15:35;9.17;;;4.40;;
5167;SDS011;2603;48.918;8.980;2022-10-31T05:18:20;9.13;;;4.53;;
5167;SDS011;2603;48.918;8.980;2022-10-31T05:20:55;8.07;;;4.60;;
5167;SDS011;2603;48.918;8.980;2022-10-31T05:23:34;11.27;;;4.97;;
5167;SDS011;2603;48.918;8.980;2022-10-31T05:26:01;7.13;;;4.40;;
5167;SDS011;2603;48.918;8.980;2022-10-31T05:28:27;15.93;;;5.00;;
5167;SDS011;2603;48.918;8.980;2022-10-31T05:30:54;8.80;;;4.33;;
5167;SDS011;2603;48.918;8.980;2022-10-31T05:33:21;9.40;;;4.70;;
5167;SDS011;2603;48.918;8.980;2022-10-31T05:36:08;10.77;;;5.03;;
5167;SDS011;2603;48.918;8.980;2022-10-31T05:38:55;8.30;;;3.50;;
5167;SDS011;2603;48.918;8.980;2022-10-31T05:41:42;5.90;;;3.70;;
5167;SDS011;2603;48.918;8.980;2022-10-31T05:44:17;13.23;;;3.80;;
5167;SDS011;2603;48.918;8.980;2022-10-31T05:46:53;9.50;;;3.30;;
5167;SDS011;2603;48.918;8.980;2022-10-31T05:49:22;15.13;;;3.40;;
5167;SDS011;2603;48.918;8.980;2022-10-31T05:52:19;14.87;;;3.30;;
5167;SDS011;2603;48.918;8.980;2022-10-31T05:54:56;10.03;;;3.10;;
5167;SDS011;2603;48.918;8.980;2022-10-31T05:57:23;6.13;;;3.17;;
5167;SDS011;2603;48.918;8.980;2022-10-31T05:59:51;11.03;;;3.00;;
5167;SDS011;2603;48.918;8.980;2022-10-31T06:02:19;7.10;;;3.10;;
5167;SDS011;2603;48.918;8.980;2022-10-31T06:05:21;9.20;;;3.20;;
5167;SDS011;2603;48.918;8.980;2022-10-31T06:07:49;13.97;;;2.40;;
5167;SDS011;2603;48.918;8.980;2022-10-31T06:10:16;4.67;;;2.90;;
5167;SDS011;2603;48.918;8.980;2022-10-31T06:12:45;5.87;;;2.50;;
5167;SDS011;2603;48.918;8.980;2022-10-31T06:15:20;9.93;;;3.17;;
5167;SDS011;2603;48.918;8.980;2022-10-31T06:17:52;13.00;;;4.27;;
5167;SDS011;2603;48.918;8.980;2022-10-31T06:20:25;4.00;;;2.53;;
5167;SDS011;2603;48.918;8.980;2022-10-31T06:23:01;4.77;;;2.93;;
5167;SDS011;2603;48.918;8.980;2022-10-31T06:25:30;10.00;;;3.93;;
5167;SDS011;2603;48.918;8.980;2022-10-31T06:27:56;10.93;;;3.87;;
5167;SDS011;2603;48.918;8.980;2022-10-31T06:30:29;7.90;;;3.43;;
5167;SDS011;2603;48.918;8.980;2022-10-31T06:33:01;6.30;;;3.07;;
5167;SDS011;2603;48.918;8.980;2022-10-31T06:35:28;11.00;;;2.43;;
5167;SDS011;2603;48.918;8.980;2022-10-31T06:37:55;6.33;;;3.33;;
5167;SDS011;2603;48.918;8.980;2022-10-31T06:40:41;11.20;;;3.80;;
5167;SDS011;2603;48.918;8.980;2022-10-31T06:43:22;4.67;;;2.77;;
5167;SDS011;2603;48.918;8.980;2022-10-31T06:45:57;8.27;;;5.03;;
5167;SDS011;2603;48.918;8.980;2022-10-31T06:48:29;10.30;;;4.13;;
5167;SDS011;2603;48.918;8.980;2022-10-31T06:51:18;9.87;;;5.43;;
5167;SDS011;2603;48.918;8.980;2022-10-31T06:53:44;10.03;;;6.20;;
5167;SDS011;2603;48.918;8.980;2022-10-31T06:56:15;15.50;;;8.60;;
5167;SDS011;2603;48.918;8.980;2022-10-31T06:58:47;11.57;;;8.40;;
5167;SDS011;2603;48.918;8.980;2022-10-31T07:01:15;11.93;;;7.17;;
5167;SDS011;2603;48.918;8.980;2022-10-31T07:03:42;8.37;;;5.10;;
5167;SDS011;2603;48.918;8.980;2022-10-31T07:06:08;12.20;;;4.40;;
5167;SDS011;2603;48.918;8.980;2022-10-31T07:08:35;7.67;;;4.33;;
5167;SDS011;2603;48.918;8.980;2022-10-31T07:11:02;9.87;;;4.00;;
5167;SDS011;2603;48.918;8.980;2022-10-31T07:13:30;15.13;;;7.10;;
5167;SDS011;2603;48.918;8.980;2022-10-31T07:16:05;14.80;;;7.33;;
5167;SDS011;2603;48.918;8.980;2022-10-31T07:18:34;47.07;;;11.07;;
5167;SDS011;2603;48.918;8.980;2022-10-31T07:21:01;27.47;;;10.37;;
5167;SDS011;2603;48.918;8.980;2022-10-31T07:23:28;20.03;;;7.40;;
5167;SDS011;2603;48.918;8.980;2022-10-31T07:26:22;20.07;;;9.12;;
5167;SDS011;2603;48.918;8.980;2022-10-31T07:28:50;21.60;;;8.00;;
5167;SDS011;2603;48.918;8.980;2022-10-31T07:31:20;18.60;;;10.00;;
5167;SDS011;2603;48.918;8.980;2022-10-31T07:33:47;19.23;;;7.23;;
5167;SDS011;2603;48.918;8.980;2022-10-31T07:36:42;11.57;;;5.90;;
5167;SDS011;2603;48.918;8.980;2022-10-31T07:39:11;9.00;;;5.40;;
5167;SDS011;2603;48.918;8.980;2022-10-31T07:41:38;7.70;;;5.10;;
5167;SDS011;2603;48.918;8.980;2022-10-31T07:44:06;9.83;;;4.90;;
5167;SDS011;2603;48.918;8.980;2022-10-31T07:46:51;5.70;;;3.63;;
5167;SDS011;2603;48.918;8.980;2022-10-31T07:49:37;11.50;;;4.47;;
5167;SDS011;2603;48.918;8.980;2022-10-31T07:52:22;13.70;;;4.10;;
5167;SDS011;2603;48.918;8.980;2022-10-31T07:55:09;5.87;;;3.67;;
5167;SDS011;2603;48.918;8.980;2022-10-31T07:57:36;8.63;;;4.23;;
5167;SDS011;2603;48.918;8.980;2022-10-31T08:00:04;8.37;;;4.87;;
5167;SDS011;2603;48.918;8.980;2022-10-31T08:02:40;7.20;;;3.70;;
5167;SDS011;2603;48.918;8.980;2022-10-31T08:05:39;3.80;;;3.40;;
5167;SDS011;2603;48.918;8.980;2022-10-31T08:08:41;7.17;;;4.30;;
5167;SDS011;2603;48.918;8.980;2022-10-31T08:11:08;12.90;;;4.47;;
5167;SDS011;2603;48.918;8.980;2022-10-31T08:13:36;10.10;;;4.07;;
5167;SDS011;2603;48.918;8.980;2022-10-31T08:16:04;8.57;;;4.50;;
5167;SDS011;2603;48.918;8.980;2022-10-31T08:18:35;11.20;;;4.83;;
5167;SDS011;2603;48.918;8.980;2022-10-31T08:21:03;10.43;;;5.10;;
5167;SDS011;2603;48.918;8.980;2022-10-31T08:23:29;7.23;;;3.80;;
5167;SDS011;2603;48.918;8.980;2022-10-31T08:25:56;9.60;;;4.10;;
5167;SDS011;2603;48.918;8.980;2022-10-31T08:28:23;7.47;;;3.80;;
5167;SDS011;2603;48.918;8.980;2022-10-31T08:30:52;16.33;;;9.17;;
5167;SDS011;2603;48.918;8.980;2022-10-31T08:33:39;9.03;;;6.40;;
5167;SDS011;2603;48.918;8.980;2022-10-31T08:36:18;8.17;;;4.93;;
5167;SDS011;2603;48.918;8.980;2022-10-31T08:39:03;6.97;;;5.37;;
5167;SDS011;2603;48.918;8.980;2022-10-31T08:41:30;13.20;;;5.87;;
5167;SDS011;2603;48.918;8.980;2022-10-31T08:43:58;6.27;;;4.53;;
5167;SDS011;2603;48.918;8.980;2022-10-31T08:46:25;6.77;;;3.33;;
5167;SDS011;2603;48.918;8.980;2022-10-31T08:48:53;9.07;;;4.33;;
5167;SDS011;2603;48.918;8.980;2022-10-31T08:51:21;6.67;;;4.03;;
5167;SDS011;2603;48.918;8.980;2022-10-31T08:53:51;11.73;;;3.97;;
5167;SDS011;2603;48.918;8.980;2022-10-31T08:56:24;10.70;;;4.60;;
5167;SDS011;2603;48.918;8.980;2022-10-31T08:58:52;12.97;;;4.60;;
5167;SDS011;2603;48.918;8.980;2022-10-31T09:01:28;11.07;;;5.90;;
5167;SDS011;2603;48.918;8.980;2022-10-31T09:03:56;10.00;;;5.43;;
5167;SDS011;2603;48.918;8.980;2022-10-31T09:06:24;8.27;;;4.33;;
5167;SDS011;2603;48.918;8.980;2022-10-31T09:08:52;8.93;;;4.37;;
5167;SDS011;2603;48.918;8.980;2022-10-31T09:11:20;9.30;;;4.87;;
5167;SDS011;2603;48.918;8.980;2022-10-31T09:14:10;8.93;;;5.23;;
5167;SDS011;2603;48.918;8.980;2022-10-31T09:16:37;9.53;;;5.07;;
5167;SDS011;2603;48.918;8.980;2022-10-31T09:19:07;11.17;;;5.87;;
5167;SDS011;2603;48.918;8.980;2022-10-31T09:21:34;11.30;;;4.03;;
5167;SDS011;2603;48.918;8.980;2022-10-31T09:24:01;13.00;;;5.40;;
5167;SDS011;2603;48.918;8.980;2022-10-31T09:26:27;12.47;;;5.40;;
5167;SDS011;2603;48.918;8.980;2022-10-31T09:29:09;12.30;;;5.70;;
5167;SDS011;2603;48.918;8.980;2022-10-31T09:31:37;8.83;;;5.43;;
5167;SDS011;2603;48.918;8.980;2022-10-31T09:34:20;16.83;;;4.73;;
5167;SDS011;2603;48.918;8.980;2022-10-31T09:37:00;8.70;;;5.70;;
5167;SDS011;2603;48.918;8.980;2022-10-31T09:39:28;7.77;;;5.33;;
5167;SDS011;2603;48.918;8.980;2022-10-31T09:42:07;16.00;;;6.10;;
5167;SDS011;2603;48.918;8.980;2022-10-31T09:44:56;12.33;;;6.77;;
5167;SDS011;2603;48.918;8.980;2022-10-31T09:47:36;17.73;;;6.60;;
5167;SDS011;2603;48.918;8.980;2022-10-31T09:50:29;13.37;;;6.30;;
5167;SDS011;2603;48.918;8.980;2022-10-31T09:53:21;12.37;;;6.57;;
5167;SDS011;2603;48.918;8.980;2022-10-31T09:55:50;15.83;;;7.23;;
5167;SDS011;2603;48.918;8.980;2022-10-31T09:58:18;12.07;;;6.67;;
5167;SDS011;2603;48.918;8.980;2022-10-31T10:00:47;17.93;;;6.83;;
5167;SDS011;2603;48.918;8.980;2022-10-31T10:03:17;18.97;;;6.37;;
5167;SDS011;2603;48.918;8.980;2022-10-31T10:05:56;23.53;;;6.07;;
5167;SDS011;2603;48.918;8.980;2022-10-31T10:08:42;12.17;;;6.20;;
5167;SDS011;2603;48.918;8.980;2022-10-31T10:11:51;10.40;;;5.90;;
5167;SDS011;2603;48.918;8.980;2022-10-31T10:14:34;11.70;;;6.20;;
5167;SDS011;2603;48.918;8.980;2022-10-31T10:17:18;14.53;;;6.43;;
5167;SDS011;2603;48.918;8.980;2022-10-31T10:20:03;14.83;;;6.03;;
5167;SDS011;2603;48.918;8.980;2022-10-31T10:22:38;14.80;;;7.73;;
5167;SDS011;2603;48.918;8.980;2022-10-31T10:25:14;12.73;;;5.80;;
5167;SDS011;2603;48.918;8.980;2022-10-31T10:27:46;11.13;;;5.93;;
5167;SDS011;2603;48.918;8.980;2022-10-31T10:30:17;16.93;;;5.83;;
5167;SDS011;2603;48.918;8.980;2022-10-31T10:32:45;9.70;;;6.30;;
5167;SDS011;2603;48.918;8.980;2022-10-31T10:35:17;14.40;;;6.90;;
5167;SDS011;2603;48.918;8.980;2022-10-31T10:37:49;11.87;;;5.93;;
5167;SDS011;2603;48.918;8.980;2022-10-31T10:40:17;11.20;;;5.87;;
5167;SDS011;2603;48.918;8.980;2022-10-31T10:42:50;12.83;;;6.00;;
5167;SDS011;2603;48.918;8.980;2022-10-31T10:45:46;14.70;;;6.50;;
5167;SDS011;2603;48.918;8.980;2022-10-31T10:48:39;11.97;;;6.33;;
5167;SDS011;2603;48.918;8.980;2022-10-31T10:51:10;15.73;;;6.47;;
5167;SDS011;2603;48.918;8.980;2022-10-31T10:53:46;8.67;;;5.70;;
5167;SDS011;2603;48.918;8.980;2022-10-31T10:56:37;14.70;;;8.10;;
5167;SDS011;2603;48.918;8.980;2022-10-31T10:59:09;11.27;;;6.60;;
5167;SDS011;2603;48.918;8.980;2022-10-31T11:01:38;16.40;;;6.50;;
5167;SDS011;2603;48.918;8.980;2022-10-31T11:04:07;12.80;;;6.57;;
5167;SDS011;2603;48.918;8.980;2022-10-31T11:07:01;18.23;;;6.20;;
5167;SDS011;2603;48.918;8.980;2022-10-31T11:09:30;14.10;;;5.97;;
5167;SDS011;2603;48.918;8.980;2022-10-31T11:11:58;23.90;;;7.73;;
5167;SDS011;2603;48.918;8.980;2022-10-31T11:14:25;18.90;;;7.23;;
5167;SDS011;2603;48.918;8.980;2022-10-31T11:16:54;16.80;;;7.47;;
5167;SDS011;2603;48.918;8.980;2022-10-31T11:19:22;18.80;;;6.87;;
5167;SDS011;2603;48.918;8.980;2022-10-31T11:21:51;11.53;;;6.30;;
5167;SDS011;2603;48.918;8.980;2022-10-31T11:24:19;12.77;;;6.40;;
5167;SDS011;2603;48.918;8.980;2022-10-31T11:26:49;13.63;;;7.30;;
5167;SDS011;2603;48.918;8.980;2022-10-31T11:29:16;10.50;;;5.87;;
5167;SDS011;2603;48.918;8.980;2022-10-31T11:31:46;17.43;;;7.00;;
5167;SDS011;2603;48.918;8.980;2022-10-31T11:34:15;10.40;;;6.80;;
5167;SDS011;2603;48.918;8.980;2022-10-31T11:36:46;11.63;;;5.80;;
5167;SDS011;2603;48.918;8.980;2022-10-31T11:39:15;15.63;;;7.20;;
5167;SDS011;2603;48.918;8.980;2022-10-31T11:41:44;15.10;;;8.30;;
5167;SDS011;2603;48.918;8.980;2022-10-31T11:44:13;11.77;;;7.50;;
5167;SDS011;2603;48.918;8.980;2022-10-31T11:46:45;14.97;;;7.23;;
5167;SDS011;2603;48.918;8.980;2022-10-31T11:49:14;12.03;;;7.33;;
5167;SDS011;2603;48.918;8.980;2022-10-31T11:51:42;14.83;;;8.00;;
5167;SDS011;2603;48.918;8.980;2022-10-31T11:54:15;12.80;;;6.93;;
5167;SDS011;2603;48.918;8.980;2022-10-31T11:56:45;17.50;;;7.33;;
5167;SDS011;2603;48.918;8.980;2022-10-31T11:59:18;18.23;;;7.40;;
5167;SDS011;2603;48.918;8.980;2022-10-31T12:01:48;17.40;;;8.47;;
5167;SDS011;2603;48.918;8.980;2022-10-31T12:04:15;12.67;;;7.23;;
5167;SDS011;2603;48.918;8.980;2022-10-31T12:06:43;15.47;;;7.57;;
5167;SDS011;2603;48.918;8.980;2022-10-31T12:09:15;11.10;;;7.10;;
5167;SDS011;2603;48.918;8.980;2022-10-31T12:11:47;19.73;;;8.47;;
5167;SDS011;2603;48.918;8.980;2022-10-31T12:14:25;26.67;;;7.23;;
5167;SDS011;2603;48.918;8.980;2022-10-31T12:17:04;14.10;;;7.83;;
5167;SDS011;2603;48.918;8.980;2022-10-31T12:19:35;13.80;;;7.07;;
5167;SDS011;2603;48.918;8.980;2022-10-31T12:22:05;16.60;;;7.83;;
5167;SDS011;2603;48.918;8.980;2022-10-31T12:24:41;13.93;;;7.90;;
5167;SDS011;2603;48.918;8.980;2022-10-31T12:27:17;16.63;;;8.23;;
5167;SDS011;2603;48.918;8.980;2022-10-31T12:29:56;14.17;;;7.40;;
5167;SDS011;2603;48.918;8.980;2022-10-31T12:32:37;19.30;;;7.27;;
5167;SDS011;2603;48.918;8.980;2022-10-31T12:35:22;13.40;;;6.80;;
5167;SDS011;2603;48.918;8.980;2022-10-31T12:37:56;15.07;;;6.80;;
5167;SDS011;2603;48.918;8.980;2022-10-31T12:43:35;18.13;;;7.50;;
5167;SDS011;2603;48.918;8.980;2022-10-31T12:46:07;13.10;;;6.60;;
5167;SDS011;2603;48.918;8.980;2022-10-31T12:51:37;13.13;;;6.93;;
5167;SDS011;2603;48.918;8.980;2022-10-31T12:54:14;14.10;;;6.63;;
5167;SDS011;2603;48.918;8.980;2022-10-31T12:56:50;15.60;;;7.23;;
5167;SDS011;2603;48.918;8.980;2022-10-31T12:59:21;31.50;;;7.90;;
5167;SDS011;2603;48.918;8.980;2022-10-31T13:01:55;19.83;;;7.00;;
5167;SDS011;2603;48.918;8.980;2022-10-31T13:04:35;19.53;;;7.73;;
5167;SDS011;2603;48.918;8.980;2022-10-31T13:07:05;11.50;;;7.73;;
5167;SDS011;2603;48.918;8.980;2022-10-31T13:09:36;25.53;;;7.07;;
5167;SDS011;2603;48.918;8.980;2022-10-31T13:12:07;15.67;;;7.33;;
5167;SDS011;2603;48.918;8.980;2022-10-31T13:14:35;14.20;;;7.77;;
5167;SDS011;2603;48.918;8.980;2022-10-31T13:17:05;14.80;;;7.77;;
5167;SDS011;2603;48.918;8.980;2022-10-31T13:19:33;22.90;;;7.57;;
5167;SDS011;2603;48.918;8.980;2022-10-31T13:22:04;16.80;;;7.10;;
5167;SDS011;2603;48.918;8.980;2022-10-31T13:24:33;12.00;;;7.63;;
5167;SDS011;2603;48.918;8.980;2022-10-31T13:27:02;21.50;;;8.30;;
5167;SDS011;2603;48.918;8.980;2022-10-31T13:29:34;15.50;;;7.77;;
5167;SDS011;2603;48.918;8.980;2022-10-31T13:32:05;15.67;;;8.17;;
5167;SDS011;2603;48.918;8.980;2022-10-31T13:34:33;14.20;;;8.50;;
5167;SDS011;2603;48.918;8.980;2022-10-31T13:37:04;13.40;;;7.33;;
5167;SDS011;2603;48.918;8.980;2022-10-31T13:39:39;13.70;;;7.90;;
5167;SDS011;2603;48.918;8.980;2022-10-31T13:42:17;17.73;;;8.60;;
5167;SDS011;2603;48.918;8.980;2022-10-31T13:44:46;16.13;;;8.63;;
5167;SDS011;2603;48.918;8.980;2022-10-31T13:47:24;16.20;;;8.23;;
5167;SDS011;2603;48.918;8.980;2022-10-31T13:50:02;16.30;;;7.93;;
5167;SDS011;2603;48.918;8.980;2022-10-31T13:52:30;11.70;;;7.40;;
5167;SDS011;2603;48.918;8.980;2022-10-31T13:54:56;16.77;;;7.90;;
5167;SDS011;2603;48.918;8.980;2022-10-31T13:57:26;17.70;;;7.87;;
5167;SDS011;2603;48.918;8.980;2022-10-31T13:59:58;13.93;;;7.70;;
5167;SDS011;2603;48.918;8.980;2022-10-31T14:02:27;13.40;;;7.33;;
5167;SDS011;2603;48.918;8.980;2022-10-31T14:04:56;22.57;;;7.93;;
5167;SDS011;2603;48.918;8.980;2022-10-31T14:07:24;24.10;;;8.70;;
5167;SDS011;2603;48.918;8.980;2022-10-31T14:09:55;18.63;;;7.50;;
5167;SDS011;2603;48.918;8.980;2022-10-31T14:12:24;19.00;;;8.40;;
5167;SDS011;2603;48.918;8.980;2022-10-31T14:14:55;16.70;;;7.93;;
5167;SDS011;2603;48.918;8.980;2022-10-31T14:17:25;22.87;;;7.90;;
5167;SDS011;2603;48.918;8.980;2022-10-31T14:20:02;19.03;;;8.20;;
5167;SDS011;2603;48.918;8.980;2022-10-31T14:22:47;26.77;;;9.17;;
5167;SDS011;2603;48.918;8.980;2022-10-31T14:25:27;16.30;;;8.30;;
5167;SDS011;2603;48.918;8.980;2022-10-31T14:27:56;12.13;;;6.93;;
5167;SDS011;2603;48.918;8.980;2022-10-31T14:30:24;19.57;;;8.33;;
5167;SDS011;2603;48.918;8.980;2022-10-31T14:32:54;21.20;;;8.10;;
5167;SDS011;2603;48.918;8.980;2022-10-31T14:35:23;17.23;;;9.50;;
5167;SDS011;2603;48.918;8.980;2022-10-31T14:38:05;22.10;;;8.90;;
5167;SDS011;2603;48.918;8.980;2022-10-31T14:40:41;25.63;;;9.60;;
5167;SDS011;2603;48.918;8.980;2022-10-31T14:43:20;16.80;;;8.10;;
5167;SDS011;2603;48.918;8.980;2022-10-31T14:45:55;12.93;;;7.47;;
5167;SDS011;2603;48.918;8.980;2022-10-31T14:48:36;19.87;;;8.70;;
5167;SDS011;2603;48.918;8.980;2022-10-31T14:51:10;14.63;;;9.03;;
5167;SDS011;2603;48.918;8.980;2022-10-31T14:53:41;15.40;;;7.90;;
5167;SDS011;2603;48.918;8.980;2022-10-31T14:56:11;21.53;;;8.97;;
5167;SDS011;2603;48.918;8.980;2022-10-31T14:58:39;22.37;;;9.50;;
5167;SDS011;2603;48.918;8.980;2022-10-31T15:01:15;20.57;;;10.10;;
5167;SDS011;2603;48.918;8.980;2022-10-31T15:03:48;15.87;;;8.00;;
5167;SDS011;2603;48.918;8.980;2022-10-31T15:06:15;14.10;;;8.73;;
5167;SDS011;2603;48.918;8.980;2022-10-31T15:08:44;25.10;;;8.03;;
5167;SDS011;2603;48.918;8.980;2022-10-31T15:11:12;16.33;;;8.03;;
5167;SDS011;2603;48.918;8.980;2022-10-31T15:13:44;17.87;;;9.60;;
5167;SDS011;2603;48.918;8.980;2022-10-31T15:16:12;16.30;;;8.20;;
5167;SDS011;2603;48.918;8.980;2022-10-31T15:18:45;20.80;;;8.17;;
5167;SDS011;2603;48.918;8.980;2022-10-31T15:21:18;15.53;;;7.87;;
5167;SDS011;2603;48.918;8.980;2022-10-31T15:23:46;21.43;;;9.10;;
5167;SDS011;2603;48.918;8.980;2022-10-31T15:26:14;21.80;;;9.53;;
5167;SDS011;2603;48.918;8.980;2022-10-31T15:28:42;20.77;;;9.37;;
5167;SDS011;2603;48.918;8.980;2022-10-31T15:31:12;16.80;;;9.47;;
5167;SDS011;2603;48.918;8.980;2022-10-31T15:33:41;30.50;;;8.87;;
5167;SDS011;2603;48.918;8.980;2022-10-31T15:36:18;30.23;;;9.43;;
5167;SDS011;2603;48.918;8.980;2022-10-31T15:38:45;23.93;;;10.07;;
5167;SDS011;2603;48.918;8.980;2022-10-31T15:41:19;26.97;;;10.20;;
5167;SDS011;2603;48.918;8.980;2022-10-31T15:43:48;19.10;;;9.93;;